Terminal Aerodrome Forecast
Issued by NWS

Home | Current Version | Previous Version | Text Only | Print | Product List | Glossary On
Versions: 1 2 3 4 5 6 7 8 9 10 11 12 13 14 15 16 17 18 19 20 21 22 23 24 25 26 27 28 29
624
FTUS44 KBMX 241720
TAFMGM
TAF
KMGM 241720Z 2418/2518 24006KT P6SM SKC
     FM250000 23002KT P6SM FEW250
     FM251200 VRB03KT P6SM SCT250
     FM251500 19004KT P6SM OVC025=

USA.gov is the U.S. government's official web portal to all federal, state and local government web resources and services.